Time;durP1;ratioP1;P1;durP2;ratioP2;P2;SDS_P1;SDS_P2;PMS_P1;PMS_P2;Temp;Humidity;BMP_temperature;BMP_pressure;BME280_temperature;BME280_humidity;BME280_pressure;Samples;Min_cycle;Max_cycle;Signal;HPM_P1;HPM_P2
2023/03/17 00:02:22;;;;;;;1.63;1.30;;;17.10;55.60;;;;;;5101926;28;20501;-46
2023/03/17 00:04:53;;;;;;;1.10;1.00;;;17.20;55.70;;;;;;5089720;28;20257;-46
2023/03/17 00:07:26;;;;;;;2.30;0.90;;;17.10;55.60;;;;;;5101379;28;20277;-46
2023/03/17 00:09:57;;;;;;;1.57;1.20;;;17.10;55.70;;;;;;5092170;28;20208;-46
2023/03/17 00:12:30;;;;;;;1.63;1.20;;;17.10;55.70;;;;;;5101491;28;20188;-46
2023/03/17 00:15:01;;;;;;;1.67;1.10;;;17.10;55.70;;;;;;5089655;28;20589;-46
2023/03/17 00:17:30;;;;;;;1.20;0.90;;;17.10;55.80;;;;;;5093292;28;20665;-46
2023/03/17 00:20:13;;;;;;;1.87;1.03;;;17.10;55.90;;;;;;5107083;28;20252;-46
2023/03/17 00:22:45;;;;;;;1.17;1.07;;;17.10;55.70;;;;;;5105561;28;20261;-46
2023/03/17 00:25:22;;;;;;;1.57;0.97;;;17.10;55.80;;;;;;5098145;28;20200;-46
2023/03/17 00:27:52;;;;;;;1.30;1.20;;;17.10;55.90;;;;;;5091561;28;20223;-46
2023/03/17 00:30:37;;;;;;;2.03;0.90;;;17.00;55.90;;;;;;5106053;28;20693;-46
2023/03/17 00:33:09;;;;;;;1.57;1.13;;;17.10;55.90;;;;;;5106894;28;20218;-47
2023/03/17 00:35:46;;;;;;;1.40;1.00;;;17.10;56.00;;;;;;5062354;28;20216;-47
2023/03/17 00:38:23;;;;;;;1.60;1.20;;;17.00;55.90;;;;;;5107979;28;20196;-46
2023/03/17 00:40:53;;;;;;;1.47;1.00;;;17.00;56.00;;;;;;5090967;28;20184;-46
2023/03/17 00:43:27;;;;;;;1.80;1.00;;;17.00;56.00;;;;;;5093034;27;20196;-46
2023/03/17 00:45:58;;;;;;;1.30;0.90;;;17.00;56.00;;;;;;5101737;28;20204;-46
2023/03/17 00:48:28;;;;;;;1.23;0.93;;;17.00;56.00;;;;;;5096869;27;20590;-46
2023/03/17 00:50:59;;;;;;;1.73;1.00;;;17.00;56.10;;;;;;5093062;28;20196;-46
2023/03/17 00:53:29;;;;;;;1.10;0.80;;;17.00;56.10;;;;;;5106773;27;20716;-46
2023/03/17 00:56:02;;;;;;;1.00;0.90;;;17.00;56.10;;;;;;5093826;28;20203;-46
2023/03/17 00:58:33;;;;;;;1.47;0.90;;;17.00;56.30;;;;;;5104532;27;20657;-46
2023/03/17 01:01:01;;;;;;;1.07;0.80;;;17.00;56.20;;;;;;5088386;28;20223;-46
2023/03/17 01:03:28;;;;;;;1.20;1.10;;;16.90;56.20;;;;;;5085959;27;20192;-46
2023/03/17 01:06:01;;;;;;;1.07;1.00;;;16.90;56.30;;;;;;5092012;28;20243;-46
2023/03/17 01:08:46;;;;;;;2.10;1.00;;;16.90;56.90;;;;;;5086498;28;20587;-46
2023/03/17 01:11:20;;;;;;;1.00;0.80;;;16.90;56.40;;;;;;5102672;28;20192;-46
2023/03/17 01:13:49;;;;;;;0.90;0.80;;;17.00;56.50;;;;;;5104600;27;20565;-46
2023/03/17 01:16:22;;;;;;;0.70;0.70;;;16.90;56.40;;;;;;5109228;28;20184;-46
2023/03/17 01:18:51;;;;;;;1.40;1.00;;;16.90;56.50;;;;;;5106741;27;20634;-46
2023/03/17 01:21:22;;;;;;;2.37;1.07;;;16.90;56.50;;;;;;5088529;28;20237;-46
2023/03/17 01:23:50;;;;;;;1.10;1.00;;;16.90;56.60;;;;;;5104215;27;20618;-46
2023/03/17 01:26:22;;;;;;;1.00;0.90;;;16.90;56.50;;;;;;5113508;27;20220;-46
2023/03/17 01:28:54;;;;;;;1.00;0.83;;;16.90;56.50;;;;;;5102966;27;20614;-46
2023/03/17 01:31:25;;;;;;;2.30;1.00;;;16.80;56.50;;;;;;5099074;28;20269;-46
2023/03/17 01:33:54;;;;;;;2.77;1.00;;;16.90;56.50;;;;;;5092680;27;20201;-46
2023/03/17 01:36:23;;;;;;;1.17;0.90;;;16.90;56.60;;;;;;5108187;28;20265;-46
2023/03/17 01:38:54;;;;;;;1.17;0.83;;;16.90;56.50;;;;;;5108105;28;20312;-46
2023/03/17 01:41:25;;;;;;;1.30;1.00;;;16.80;56.50;;;;;;5102932;28;20197;-46
2023/03/17 01:43:56;;;;;;;0.70;0.60;;;16.90;56.60;;;;;;5103886;28;20200;-46
2023/03/17 01:46:34;;;;;;;1.20;1.00;;;16.80;56.50;;;;;;5108521;28;20227;-46
2023/03/17 01:49:23;;;;;;;1.00;0.90;;;16.90;56.60;;;;;;5108668;27;20234;-46
2023/03/17 01:52:07;;;;;;;1.47;0.90;;;16.80;56.60;;;;;;5096406;28;20245;-46
2023/03/17 01:55:01;;;;;;;0.80;0.70;;;16.80;56.50;;;;;;5078461;28;20278;-46
2023/03/17 01:57:38;;;;;;;1.10;1.00;;;16.80;56.50;;;;;;5099980;28;20252;-47
2023/03/17 02:00:16;;;;;;;2.30;1.07;;;16.80;56.40;;;;;;5103801;27;20203;-46
2023/03/17 02:02:50;;;;;;;1.70;0.97;;;16.80;56.50;;;;;;5086329;28;20680;-46
2023/03/17 02:05:31;;;;;;;1.27;1.00;;;16.80;56.40;;;;;;5075592;28;20625;-46
2023/03/17 02:08:21;;;;;;;1.00;0.87;;;16.80;56.50;;;;;;5107387;28;20703;-46
2023/03/17 02:10:56;;;;;;;1.43;0.97;;;16.80;56.50;;;;;;5076300;28;20208;-47
2023/03/17 02:13:27;;;;;;;2.00;0.90;;;16.80;56.50;;;;;;5085887;28;20246;-46
2023/03/17 02:16:01;;;;;;;1.17;1.00;;;16.80;56.50;;;;;;5110166;27;20189;-46
2023/03/17 02:18:32;;;;;;;1.07;0.97;;;16.80;56.50;;;;;;5102227;28;20219;-46
2023/03/17 02:21:46;;;;;;;0.93;0.90;;;16.80;56.40;;;;;;5088412;28;20559;-46
2023/03/17 02:24:36;;;;;;;1.07;0.80;;;16.80;56.50;;;;;;5114053;27;20644;-46
2023/03/17 02:27:33;;;;;;;0.60;0.60;;;16.80;56.50;;;;;;5077511;28;20208;-46
2023/03/17 02:30:18;;;;;;;1.27;0.93;;;16.80;56.50;;;;;;5102788;27;20215;-46
2023/03/17 02:32:46;;;;;;;1.27;1.17;;;16.80;56.40;;;;;;5088419;28;20858;-46
2023/03/17 02:35:19;;;;;;;0.90;0.67;;;16.80;56.50;;;;;;5097055;27;20188;-46
2023/03/17 02:37:52;;;;;;;0.93;0.83;;;16.80;56.50;;;;;;5084665;28;20224;-46
2023/03/17 02:40:26;;;;;;;1.03;0.90;;;16.70;56.40;;;;;;5109741;27;20214;-46
2023/03/17 02:42:56;;;;;;;1.20;0.97;;;16.80;56.50;;;;;;5082157;28;20211;-46
2023/03/17 02:45:30;;;;;;;1.43;0.80;;;16.80;56.50;;;;;;5106616;27;20265;-46
2023/03/17 02:48:06;;;;;;;1.73;1.20;;;16.70;56.50;;;;;;5108912;27;20206;-46
2023/03/17 02:50:37;;;;;;;1.23;1.03;;;16.80;56.40;;;;;;5112520;27;20275;-46
2023/03/17 02:53:07;;;;;;;1.20;1.10;;;16.80;56.50;;;;;;5108886;27;20261;-46
2023/03/17 02:55:38;;;;;;;0.80;0.80;;;16.80;56.50;;;;;;5100831;28;20783;-46
2023/03/17 02:58:09;;;;;;;1.73;0.93;;;16.70;56.50;;;;;;5105791;28;20200;-46
2023/03/17 03:00:41;;;;;;;1.10;0.97;;;16.80;56.60;;;;;;5111009;27;20295;-46
2023/03/17 03:03:12;;;;;;;0.90;0.80;;;16.80;56.50;;;;;;5110074;28;20199;-46
2023/03/17 03:05:42;;;;;;;0.83;0.77;;;16.70;56.40;;;;;;5104751;28;20211;-46
2023/03/17 03:08:12;;;;;;;1.47;0.70;;;16.80;56.40;;;;;;5088796;28;20220;-46
2023/03/17 03:10:45;;;;;;;0.80;0.80;;;16.70;56.40;;;;;;5084733;28;20192;-46
2023/03/17 03:13:18;;;;;;;1.67;1.10;;;16.70;56.40;;;;;;5102789;28;20213;-46
2023/03/17 03:15:48;;;;;;;0.77;0.70;;;16.70;56.40;;;;;;5110662;28;20192;-46
2023/03/17 03:18:19;;;;;;;1.70;0.90;;;16.80;56.40;;;;;;5086596;28;20645;-46
2023/03/17 03:20:48;;;;;;;1.50;1.03;;;16.70;56.30;;;;;;5105436;28;20749;-46
2023/03/17 03:23:22;;;;;;;3.17;0.87;;;16.70;56.30;;;;;;5105533;28;20251;-46
2023/03/17 03:25:55;;;;;;;1.37;0.93;;;16.70;56.40;;;;;;5094890;28;20195;-46
2023/03/17 03:28:27;;;;;;;1.53;0.70;;;16.70;56.40;;;;;;5106523;28;20220;-46
2023/03/17 03:30:59;;;;;;;1.00;0.73;;;16.70;56.40;;;;;;5099672;28;20201;-46
2023/03/17 03:33:28;;;;;;;1.17;1.07;;;16.80;56.40;;;;;;5104418;28;20191;-46
2023/03/17 03:36:00;;;;;;;1.17;1.00;;;16.70;56.30;;;;;;5103748;28;20212;-46
2023/03/17 03:38:31;;;;;;;1.23;0.87;;;16.70;56.30;;;;;;5107898;28;20196;-46
2023/03/17 03:41:02;;;;;;;1.40;0.90;;;16.70;56.20;;;;;;5085829;28;20247;-46
2023/03/17 03:43:32;;;;;;;1.10;0.80;;;16.70;56.20;;;;;;5083580;28;20188;-46
2023/03/17 03:46:03;;;;;;;0.80;0.60;;;16.70;56.20;;;;;;5107317;28;20200;-46
2023/03/17 03:48:35;;;;;;;1.77;0.80;;;16.70;56.20;;;;;;5106829;28;20567;-46
2023/03/17 03:51:06;;;;;;;1.43;1.00;;;16.70;56.10;;;;;;5107439;28;20176;-46
2023/03/17 03:53:37;;;;;;;1.37;0.93;;;16.70;56.20;;;;;;5077760;28;20213;-46
2023/03/17 03:56:09;;;;;;;1.10;0.97;;;16.70;56.00;;;;;;5097815;28;20574;-46
2023/03/17 03:58:41;;;;;;;1.83;1.30;;;16.70;56.00;;;;;;5090373;28;20214;-46
2023/03/17 04:01:13;;;;;;;1.93;0.67;;;16.70;56.00;;;;;;5100545;28;20216;-47
2023/03/17 04:03:42;;;;;;;1.23;1.03;;;16.60;55.90;;;;;;5097525;28;20696;-46
2023/03/17 04:06:13;;;;;;;1.47;1.37;;;16.60;56.00;;;;;;5108225;28;20657;-46
2023/03/17 04:08:44;;;;;;;3.87;1.00;;;16.70;56.00;;;;;;5099669;28;20213;-47
2023/03/17 04:11:16;;;;;;;0.70;0.70;;;16.70;56.10;;;;;;5093292;28;20235;-46
2023/03/17 04:13:45;;;;;;;1.00;0.63;;;16.70;56.00;;;;;;5105011;28;20359;-47
2023/03/17 04:16:20;;;;;;;1.70;0.97;;;16.70;56.00;;;;;;5101895;28;20283;-46
2023/03/17 04:18:50;;;;;;;2.20;0.80;;;16.70;56.10;;;;;;5104951;28;20866;-46
2023/03/17 04:21:21;;;;;;;1.03;0.90;;;16.70;56.10;;;;;;5112570;27;20704;-46
2023/03/17 04:23:48;;;;;;;1.23;1.00;;;16.60;56.10;;;;;;5106471;28;20192;-46
2023/03/17 04:26:18;;;;;;;1.00;0.80;;;16.60;56.00;;;;;;5092539;27;20200;-46
2023/03/17 04:28:48;;;;;;;1.00;0.90;;;16.70;56.00;;;;;;5107978;28;20204;-46
2023/03/17 04:31:22;;;;;;;1.03;0.80;;;16.60;56.00;;;;;;5104448;28;20192;-46
2023/03/17 04:33:49;;;;;;;1.20;1.10;;;16.60;56.10;;;;;;5106818;28;20396;-46
2023/03/17 04:36:31;;;;;;;1.30;0.93;;;16.60;56.00;;;;;;5106277;27;20231;-46
2023/03/17 04:39:02;;;;;;;0.97;0.97;;;16.60;56.10;;;;;;5108744;28;20201;-46
2023/03/17 04:41:33;;;;;;;0.90;0.77;;;16.60;56.10;;;;;;5081855;28;20625;-46
2023/03/17 04:44:02;;;;;;;2.37;0.90;;;16.60;56.00;;;;;;5101738;28;20213;-46
2023/03/17 04:46:30;;;;;;;1.30;0.93;;;16.60;56.00;;;;;;5082661;28;20261;-46
2023/03/17 04:49:00;;;;;;;0.80;0.80;;;16.60;56.10;;;;;;5075358;28;20216;-46
2023/03/17 04:51:32;;;;;;;1.50;1.17;;;16.60;56.10;;;;;;5103060;28;20605;-46
2023/03/17 04:54:04;;;;;;;0.90;0.80;;;16.60;56.10;;;;;;5107269;28;20664;-46
2023/03/17 04:56:35;;;;;;;1.20;0.90;;;16.60;56.10;;;;;;5063775;27;20195;-46
2023/03/17 04:59:07;;;;;;;2.23;0.90;;;16.60;56.00;;;;;;5109211;28;20219;-46
2023/03/17 05:01:38;;;;;;;1.00;0.77;;;16.60;56.10;;;;;;5091607;27;20207;-46
2023/03/17 05:04:08;;;;;;;1.00;0.90;;;16.60;56.00;;;;;;5102545;28;20221;-46
2023/03/17 05:06:44;;;;;;;1.13;0.97;;;16.60;56.10;;;;;;5109085;27;20204;-46
2023/03/17 05:09:16;;;;;;;2.80;1.00;;;16.60;56.10;;;;;;5109906;28;20533;-46
2023/03/17 05:11:45;;;;;;;0.93;0.90;;;16.60;56.10;;;;;;5106833;27;20181;-46
2023/03/17 05:14:15;;;;;;;1.10;0.90;;;16.60;56.10;;;;;;5110993;28;20621;-46
2023/03/17 05:16:50;;;;;;;1.07;0.80;;;16.50;56.10;;;;;;5111145;27;20183;-46
2023/03/17 05:19:20;;;;;;;1.03;0.90;;;16.60;56.20;;;;;;5084543;28;20196;-46
2023/03/17 05:21:52;;;;;;;1.23;0.90;;;16.60;56.10;;;;;;5119492;27;20235;-46
2023/03/17 05:24:23;;;;;;;1.27;1.17;;;16.60;56.10;;;;;;5106536;28;20589;-46
2023/03/17 05:27:04;;;;;;;1.33;0.97;;;16.60;56.10;;;;;;5098521;27;20275;-46
2023/03/17 05:29:36;;;;;;;1.47;0.83;;;16.60;56.10;;;;;;5092988;28;20250;-46
2023/03/17 05:32:18;;;;;;;1.17;0.90;;;16.60;56.10;;;;;;5109373;28;20285;-46
2023/03/17 05:34:50;;;;;;;1.57;0.83;;;16.60;56.00;;;;;;5103433;28;20224;-46
2023/03/17 05:37:23;;;;;;;2.00;0.87;;;16.50;56.00;;;;;;5115941;27;20192;-46
2023/03/17 05:39:52;;;;;;;2.47;0.90;;;16.50;56.00;;;;;;5109999;28;20249;-46
2023/03/17 05:42:23;;;;;;;0.97;0.80;;;16.50;55.90;;;;;;5104541;27;20231;-46
2023/03/17 05:44:55;;;;;;;2.87;0.80;;;16.50;55.90;;;;;;5109580;28;20215;-46
2023/03/17 05:47:24;;;;;;;2.73;1.00;;;16.50;55.90;;;;;;5111304;27;20609;-46
2023/03/17 05:49:53;;;;;;;1.90;1.00;;;16.50;55.90;;;;;;5108373;28;20192;-46
2023/03/17 05:52:25;;;;;;;1.53;1.00;;;16.50;55.80;;;;;;5092039;28;20197;-46
2023/03/17 05:54:55;;;;;;;2.67;1.07;;;16.60;55.90;;;;;;5107241;28;20750;-46
2023/03/17 05:57:37;;;;;;;2.07;0.90;;;16.50;55.80;;;;;;5087154;28;20670;-46
2023/03/17 06:00:05;;;;;;;2.17;1.53;;;16.50;55.70;;;;;;5098358;28;20200;-46
2023/03/17 06:02:38;;;;;;;1.20;1.10;;;16.50;55.80;;;;;;5108150;27;20543;-46
2023/03/17 06:05:08;;;;;;;3.03;1.00;;;16.50;55.70;;;;;;5109659;28;20644;-46
2023/03/17 06:07:40;;;;;;;1.30;1.00;;;16.50;55.70;;;;;;5107840;27;20712;-46
2023/03/17 06:10:24;;;;;;;1.43;1.00;;;16.50;55.70;;;;;;5109900;28;20204;-46
2023/03/17 06:12:57;;;;;;;1.63;0.90;;;16.50;55.70;;;;;;5103182;27;20203;-46
2023/03/17 06:15:34;;;;;;;1.37;1.23;;;16.50;55.70;;;;;;5089991;28;20196;-46
2023/03/17 06:18:14;;;;;;;1.97;0.90;;;16.50;55.80;;;;;;5090509;28;20273;-46
2023/03/17 06:20:43;;;;;;;1.97;0.93;;;16.50;55.80;;;;;;5096486;28;20209;-46
2023/03/17 06:23:11;;;;;;;1.77;0.90;;;16.50;56.30;;;;;;5084725;28;20569;-46
2023/03/17 06:25:43;;;;;;;1.27;1.07;;;16.50;56.90;;;;;;5066693;28;20182;-46
2023/03/17 06:28:17;;;;;;;3.20;1.10;;;16.50;56.20;;;;;;5055556;28;20237;-46
2023/03/17 06:30:53;;;;;;;2.07;1.27;;;16.50;56.00;;;;;;5072949;28;20212;-46
2023/03/17 06:33:25;;;;;;;1.60;1.00;;;16.50;55.90;;;;;;5081869;28;20197;-46
2023/03/17 06:35:57;;;;;;;3.33;1.03;;;16.50;55.80;;;;;;5075831;28;20259;-46
2023/03/17 06:38:27;;;;;;;3.40;1.10;;;16.40;55.80;;;;;;5079936;28;20227;-46
2023/03/17 06:40:54;;;;;;;1.90;1.17;;;16.50;55.80;;;;;;5076704;28;20213;-46
2023/03/17 06:43:25;;;;;;;3.20;1.30;;;16.50;55.70;;;;;;5074428;28;20205;-46
2023/03/17 06:45:54;;;;;;;2.10;1.20;;;16.50;55.80;;;;;;5084118;28;20212;-46
2023/03/17 06:48:23;;;;;;;3.80;1.23;;;16.50;56.00;;;;;;5079181;28;20236;-46
2023/03/17 06:50:56;;;;;;;2.23;1.10;;;16.50;55.90;;;;;;5076573;28;20193;-46
2023/03/17 06:53:24;;;;;;;1.97;1.30;;;16.50;55.50;;;;;;5076336;28;20224;-46
2023/03/17 06:55:56;;;;;;;3.80;1.20;;;16.40;55.80;;;;;;5074852;28;20240;-46
2023/03/17 06:58:29;;;;;;;1.10;1.00;;;16.50;55.70;;;;;;5076164;28;20209;-46
2023/03/17 07:01:01;;;;;;;1.03;0.80;;;16.50;55.70;;;;;;5081044;28;20689;-47
2023/03/17 07:03:31;;;;;;;3.33;1.00;;;16.50;55.60;;;;;;5073941;28;20200;-46
2023/03/17 07:05:59;;;;;;;1.63;1.53;;;16.50;55.50;;;;;;5075614;28;20220;-46
2023/03/17 07:08:32;;;;;;;1.40;1.10;;;16.50;55.40;;;;;;5081231;28;20220;-46
2023/03/17 07:11:05;;;;;;;3.03;1.20;;;16.50;55.40;;;;;;5080504;28;20190;-46
2023/03/17 07:13:37;;;;;;;2.90;1.17;;;16.50;55.50;;;;;;5080980;28;20211;-46
2023/03/17 07:16:08;;;;;;;1.70;0.90;;;16.50;55.40;;;;;;5080749;28;20182;-46
2023/03/17 07:18:36;;;;;;;2.07;1.27;;;16.50;55.50;;;;;;5057303;28;20254;-46
2023/03/17 07:21:06;;;;;;;3.30;1.60;;;16.50;55.50;;;;;;5076968;28;20193;-46
2023/03/17 07:23:42;;;;;;;18.20;4.13;;;16.50;55.40;;;;;;5085479;28;20191;-46
2023/03/17 07:26:10;;;;;;;22.23;4.93;;;16.60;56.60;;;;;;5079749;28;20188;-46
2023/03/17 07:28:40;;;;;;;14.27;4.20;;;16.60;56.80;;;;;;5098607;27;20208;-46
2023/03/17 07:31:12;;;;;;;22.33;4.23;;;16.70;56.30;;;;;;5097548;28;20638;-46
2023/03/17 07:33:45;;;;;;;18.93;4.83;;;16.70;56.80;;;;;;5108566;28;20452;-45
2023/03/17 07:36:19;;;;;;;16.23;3.90;;;16.70;57.50;;;;;;5100228;28;20241;-45
2023/03/17 07:38:49;;;;;;;12.53;4.43;;;16.80;57.60;;;;;;5099129;28;20231;-45
2023/03/17 07:41:21;;;;;;;13.03;3.60;;;16.90;57.40;;;;;;5078290;28;20590;-46
2023/03/17 07:43:50;;;;;;;13.00;4.00;;;17.00;57.50;;;;;;5081443;28;20204;-45
2023/03/17 07:46:21;;;;;;;12.03;4.07;;;17.10;57.30;;;;;;5101623;28;20192;-45
2023/03/17 07:48:49;;;;;;;12.33;3.67;;;17.20;57.10;;;;;;5089471;28;20277;-45
2023/03/17 07:51:21;;;;;;;10.13;3.33;;;17.30;56.80;;;;;;5107321;28;20245;-46
2023/03/17 07:54:02;;;;;;;13.73;3.57;;;17.40;56.50;;;;;;5110130;28;20611;-46
2023/03/17 07:56:34;;;;;;;11.20;3.30;;;17.40;56.10;;;;;;5105703;28;20556;-46
2023/03/17 07:59:17;;;;;;;11.03;3.13;;;17.50;56.00;;;;;;5100579;27;20274;-46
2023/03/17 08:01:56;;;;;;;10.33;3.10;;;17.60;56.00;;;;;;5109626;27;20366;-47
2023/03/17 08:04:26;;;;;;;9.67;2.80;;;17.60;55.60;;;;;;5108301;27;20192;-47
2023/03/17 08:06:58;;;;;;;9.60;2.77;;;17.70;55.60;;;;;;5107727;28;20228;-47
2023/03/17 08:09:30;;;;;;;9.17;3.20;;;17.80;55.60;;;;;;5095741;28;20217;-45
2023/03/17 08:12:00;;;;;;;7.47;2.43;;;17.80;55.30;;;;;;5104202;28;20197;-46
2023/03/17 08:14:33;;;;;;;9.03;2.80;;;17.90;54.40;;;;;;5114761;27;20227;-47
2023/03/17 08:17:03;;;;;;;5.20;2.00;;;18.00;54.50;;;;;;5106879;28;20201;-47
2023/03/17 08:19:34;;;;;;;5.37;2.17;;;18.10;53.90;;;;;;5084915;28;20619;-46
2023/03/17 08:22:03;;;;;;;5.93;2.53;;;18.10;54.00;;;;;;5111157;28;20250;-47
2023/03/17 08:24:35;;;;;;;4.77;2.10;;;18.20;54.10;;;;;;5113770;27;20584;-46
2023/03/17 08:27:08;;;;;;;4.80;1.90;;;18.20;53.40;;;;;;5112204;28;20629;-46
2023/03/17 08:29:40;;;;;;;4.90;1.93;;;18.30;52.80;;;;;;5107485;27;20218;-45
2023/03/17 08:32:12;;;;;;;14.63;2.93;;;18.40;53.30;;;;;;5090526;28;20817;-46
2023/03/17 08:34:43;;;;;;;5.07;2.23;;;18.40;53.40;;;;;;5111852;27;20200;-47
2023/03/17 08:37:18;;;;;;;3.83;1.80;;;18.50;53.00;;;;;;5108963;28;20213;-46
2023/03/17 08:39:51;;;;;;;4.07;1.90;;;18.60;52.90;;;;;;5117321;27;20221;-46
2023/03/17 08:42:21;;;;;;;10.80;2.13;;;18.60;52.70;;;;;;5110505;27;20208;-46
2023/03/17 08:44:52;;;;;;;4.40;2.20;;;18.70;52.20;;;;;;5109933;28;20614;-47
2023/03/17 08:47:24;;;;;;;4.77;2.03;;;18.70;51.90;;;;;;5104841;27;20205;-47
2023/03/17 08:49:55;;;;;;;5.37;1.73;;;18.80;51.90;;;;;;5093593;27;20235;-46
2023/03/17 08:52:25;;;;;;;10.13;2.10;;;18.80;51.90;;;;;;5104867;28;20196;-47
2023/03/17 08:54:56;;;;;;;3.60;1.63;;;18.90;52.40;;;;;;5110553;27;20227;-47
2023/03/17 08:57:27;;;;;;;2.17;1.70;;;18.90;52.00;;;;;;5107095;28;20185;-47
2023/03/17 09:00:00;;;;;;;6.50;2.10;;;19.00;52.10;;;;;;5112240;27;20617;-47
2023/03/17 09:02:32;;;;;;;3.57;1.87;;;19.00;51.70;;;;;;5109803;28;20196;-48
2023/03/17 09:05:04;;;;;;;3.60;1.70;;;19.10;51.50;;;;;;5090789;28;20219;-47
2023/03/17 09:07:34;;;;;;;5.97;1.87;;;19.10;51.60;;;;;;5098062;28;20213;-47
2023/03/17 09:10:13;;;;;;;2.90;1.40;;;19.10;51.30;;;;;;5085717;28;20211;-47
2023/03/17 09:12:46;;;;;;;5.40;1.73;;;19.20;52.00;;;;;;5076620;28;20538;-47
2023/03/17 09:15:16;;;;;;;2.47;1.50;;;19.20;51.70;;;;;;5109406;27;20184;-47
2023/03/17 09:17:49;;;;;;;4.53;1.60;;;19.20;51.70;;;;;;5106716;27;20219;-46
2023/03/17 09:20:27;;;;;;;2.90;1.63;;;19.20;51.60;;;;;;5107153;27;20268;-46
2023/03/17 09:22:56;;;;;;;3.60;1.60;;;19.30;51.30;;;;;;5105046;28;20238;-46
2023/03/17 09:25:26;;;;;;;2.87;1.60;;;19.30;51.60;;;;;;5089862;28;20679;-46
2023/03/17 09:27:57;;;;;;;3.00;1.53;;;19.30;51.40;;;;;;5102638;28;20557;-46
2023/03/17 09:30:29;;;;;;;2.60;1.40;;;19.40;51.10;;;;;;5105420;27;20247;-47
2023/03/17 09:33:01;;;;;;;2.77;1.50;;;19.50;51.40;;;;;;5105985;28;20204;-46
2023/03/17 09:35:31;;;;;;;3.43;1.40;;;19.50;51.10;;;;;;5107317;27;20192;-47
2023/03/17 09:38:03;;;;;;;1.73;1.40;;;19.50;51.20;;;;;;5109176;28;20223;-47
2023/03/17 09:40:42;;;;;;;2.27;1.27;;;19.50;51.00;;;;;;5105454;27;20841;-47
2023/03/17 09:43:51;;;;;;;5.00;1.70;;;19.50;51.00;;;;;;5090599;28;20204;-47
2023/03/17 09:46:56;;;;;;;3.03;1.60;;;19.60;50.80;;;;;;5080806;28;20197;-46
2023/03/17 09:49:47;;;;;;;2.03;1.40;;;19.60;50.50;;;;;;5095745;28;20208;-47
2023/03/17 09:52:33;;;;;;;2.17;1.30;;;19.60;50.50;;;;;;5106915;28;20189;-47
2023/03/17 09:55:08;;;;;;;2.93;1.70;;;19.60;50.50;;;;;;5104485;28;20699;-46
2023/03/17 09:57:39;;;;;;;2.70;1.50;;;19.70;50.30;;;;;;5105184;28;20208;-46
2023/03/17 10:00:30;;;;;;;1.43;1.13;;;19.70;50.00;;;;;;5094647;27;20225;-47
2023/03/17 10:03:02;;;;;;;1.57;1.10;;;19.80;50.10;;;;;;5092466;28;20200;-47
2023/03/17 10:05:38;;;;;;;4.63;1.90;;;19.80;50.40;;;;;;5099067;27;20648;-48
2023/03/17 10:08:44;;;;;;;2.17;1.40;;;19.80;50.10;;;;;;5102412;28;20199;-46
2023/03/17 10:11:37;;;;;;;6.07;1.50;;;19.90;50.40;;;;;;5102022;27;20232;-46
2023/03/17 10:14:39;;;;;;;2.73;1.40;;;19.90;50.20;;;;;;5108874;28;20195;-46
2023/03/17 10:17:25;;;;;;;1.83;1.30;;;19.90;50.00;;;;;;5108431;27;20662;-46
2023/03/17 10:20:20;;;;;;;1.63;1.27;;;19.90;50.40;;;;;;5090272;28;20565;-47
2023/03/17 10:22:59;;;;;;;2.50;1.50;;;19.90;50.40;;;;;;5094702;28;20240;-46
2023/03/17 10:25:35;;;;;;;2.93;1.43;;;20.00;50.40;;;;;;5106693;28;20656;-47
2023/03/17 10:28:39;;;;;;;3.13;1.40;;;20.00;50.30;;;;;;5092305;27;20249;-47
2023/03/17 10:31:26;;;;;;;1.93;1.30;;;20.10;50.10;;;;;;5079474;28;20201;-47
2023/03/17 10:34:35;;;;;;;2.30;1.40;;;20.10;50.20;;;;;;5109010;28;20196;-46
2023/03/17 10:37:13;;;;;;;1.93;1.37;;;20.10;50.30;;;;;;5104756;27;20670;-45
2023/03/17 10:39:55;;;;;;;4.20;1.70;;;20.20;50.60;;;;;;5093997;28;20593;-46
2023/03/17 10:42:31;;;;;;;3.13;1.40;;;20.20;50.20;;;;;;5097574;27;20277;-46
2023/03/17 10:45:39;;;;;;;2.77;1.40;;;20.20;50.70;;;;;;5082940;27;20204;-46
2023/03/17 10:48:19;;;;;;;2.70;1.50;;;20.20;49.90;;;;;;5020227;28;20207;-46
2023/03/17 10:50:51;;;;;;;1.87;1.20;;;20.00;49.70;;;;;;5090787;28;20228;-46
2023/03/17 10:53:29;;;;;;;1.67;1.00;;;19.90;49.90;;;;;;5104187;28;20184;-45
2023/03/17 10:56:09;;;;;;;2.27;1.60;;;19.80;50.30;;;;;;5106287;28;20215;-47
2023/03/17 10:58:51;;;;;;;1.93;1.30;;;19.80;50.40;;;;;;5109517;27;20592;-46
2023/03/17 11:01:40;;;;;;;3.03;1.80;;;19.70;50.50;;;;;;5089582;28;20613;-46
2023/03/17 11:04:34;;;;;;;2.30;1.43;;;19.70;50.80;;;;;;5082566;28;20522;-46
2023/03/17 11:07:17;;;;;;;3.27;1.27;;;19.60;51.10;;;;;;5079443;28;20204;-46
2023/03/17 11:09:56;;;;;;;2.00;1.43;;;19.60;51.20;;;;;;5089150;28;20602;-46
2023/03/17 11:12:39;;;;;;;3.37;1.40;;;19.50;51.40;;;;;;5107582;27;20208;-46
2023/03/17 11:15:16;;;;;;;3.23;1.90;;;19.40;51.50;;;;;;5097738;27;20234;-46
2023/03/17 11:17:58;;;;;;;1.47;1.10;;;19.40;51.90;;;;;;5084989;28;20200;-47
2023/03/17 11:20:48;;;;;;;1.90;1.37;;;19.50;52.20;;;;;;5102964;27;20211;-47
2023/03/17 11:23:42;;;;;;;2.07;1.40;;;19.50;52.20;;;;;;5119738;27;20617;-46
2023/03/17 11:26:39;;;;;;;2.60;1.40;;;19.50;52.00;;;;;;5111822;27;20803;-46
2023/03/17 11:29:23;;;;;;;3.33;1.40;;;19.40;52.00;;;;;;5116545;27;20663;-46
2023/03/17 11:32:32;;;;;;;1.73;1.23;;;19.40;52.10;;;;;;5115962;27;20235;-45
2023/03/17 11:35:38;;;;;;;2.20;1.53;;;19.30;52.10;;;;;;5119904;28;20182;-45
2023/03/17 11:38:27;;;;;;;2.10;1.60;;;19.30;52.10;;;;;;5107879;28;20193;-46
2023/03/17 11:41:45;;;;;;;2.90;1.50;;;19.30;51.90;;;;;;5114852;28;20195;-46
2023/03/17 11:44:35;;;;;;;2.83;1.97;;;19.30;52.00;;;;;;5102912;28;20277;-45
2023/03/17 11:48:04;;;;;;;2.47;1.30;;;19.30;52.10;;;;;;5120887;28;20226;-46
2023/03/17 11:51:05;;;;;;;3.70;1.63;;;19.30;52.30;;;;;;5006473;28;20245;-46
2023/03/17 11:54:04;;;;;;;2.50;1.83;;;19.30;52.20;;;;;;5018115;28;20688;-45
2023/03/17 11:56:49;;;;;;;3.33;2.00;;;19.40;52.20;;;;;;5027368;28;20790;-46
2023/03/17 11:59:42;;;;;;;1.70;1.20;;;19.60;52.20;;;;;;5028876;28;20277;-46
2023/03/17 12:02:39;;;;;;;2.47;1.30;;;19.70;52.00;;;;;;5015240;28;20645;-46
2023/03/17 12:05:16;;;;;;;2.87;1.53;;;19.80;52.20;;;;;;5027546;28;20207;-45
2023/03/17 12:07:55;;;;;;;6.27;1.63;;;19.80;52.00;;;;;;5005293;28;20772;-46
2023/03/17 12:10:51;;;;;;;2.80;1.30;;;19.90;52.00;;;;;;5031584;28;20887;-46
2023/03/17 12:13:28;;;;;;;2.00;1.20;;;19.90;52.00;;;;;;5078948;28;20201;-45
2023/03/17 12:16:09;;;;;;;2.43;1.50;;;20.00;52.40;;;;;;5106496;28;20198;-45
2023/03/17 12:19:05;;;;;;;1.97;1.47;;;20.10;52.10;;;;;;5112301;28;20184;-46
2023/03/17 12:21:49;;;;;;;2.70;1.73;;;20.10;52.10;;;;;;5102179;28;20204;-46
2023/03/17 12:25:03;;;;;;;1.80;1.37;;;20.20;52.30;;;;;;5091889;28;20236;-46
2023/03/17 12:27:41;;;;;;;2.33;1.33;;;20.20;52.20;;;;;;5056239;28;20216;-47
2023/03/17 12:30:28;;;;;;;3.47;1.40;;;20.20;52.10;;;;;;5089492;28;20364;-45
2023/03/17 12:33:51;;;;;;;5.40;1.50;;;20.30;52.10;;;;;;5090478;28;20193;-46
2023/03/17 12:36:41;;;;;;;5.37;1.70;;;20.40;52.10;;;;;;5072444;28;20235;-47
2023/03/17 12:39:43;;;;;;;2.23;1.57;;;20.40;52.10;;;;;;5089246;28;20215;-46
2023/03/17 12:42:45;;;;;;;2.53;1.70;;;20.50;51.80;;;;;;5073441;27;20207;-46
2023/03/17 12:45:32;;;;;;;2.70;1.50;;;20.50;51.70;;;;;;5101560;28;20204;-45
2023/03/17 12:48:56;;;;;;;3.50;1.67;;;20.50;51.90;;;;;;5104095;27;20711;-45
2023/03/17 12:51:52;;;;;;;2.73;1.53;;;20.60;52.10;;;;;;5102784;28;20180;-46
2023/03/17 12:54:32;;;;;;;2.33;1.33;;;20.60;51.50;;;;;;5108298;27;20189;-46
2023/03/17 12:57:26;;;;;;;3.30;2.00;;;20.60;51.70;;;;;;5086768;28;20246;-46
2023/03/17 13:00:24;;;;;;;2.83;1.53;;;20.60;51.70;;;;;;5070956;28;20212;-46
2023/03/17 13:03:24;;;;;;;2.13;1.60;;;20.60;51.60;;;;;;5100271;28;20206;-46
2023/03/17 13:06:02;;;;;;;3.03;1.93;;;20.70;51.30;;;;;;5104023;28;20196;-44
2023/03/17 13:08:41;;;;;;;2.47;1.80;;;20.70;51.90;;;;;;5089446;28;20231;-46
2023/03/17 13:11:36;;;;;;;3.53;1.43;;;20.70;51.80;;;;;;5106859;28;20292;-45
2023/03/17 13:14:28;;;;;;;3.07;1.60;;;20.80;51.90;;;;;;5107106;28;20212;-44
2023/03/17 13:17:30;;;;;;;2.40;1.50;;;20.80;52.00;;;;;;5090399;28;20208;-46
2023/03/17 13:20:14;;;;;;;2.80;1.57;;;20.80;51.40;;;;;;5036021;28;20208;-45
2023/03/17 13:23:11;;;;;;;3.07;1.60;;;20.90;51.40;;;;;;5083077;28;20246;-45
2023/03/17 13:25:52;;;;;;;1.50;1.30;;;20.90;52.20;;;;;;5074225;28;20215;-45
2023/03/17 13:28:37;;;;;;;2.80;1.60;;;20.90;51.10;;;;;;5077383;28;20201;-47
2023/03/17 13:31:27;;;;;;;2.30;1.20;;;21.00;51.10;;;;;;5099624;28;20223;-47
2023/03/17 13:34:18;;;;;;;2.37;1.37;;;21.00;51.00;;;;;;5079691;28;20197;-47
2023/03/17 13:37:22;;;;;;;5.33;1.70;;;21.00;51.30;;;;;;5072017;28;20500;-45
2023/03/17 13:40:22;;;;;;;2.13;1.40;;;21.10;51.00;;;;;;5074814;28;20792;-46